San Luis County Regional Airport San Luis Obispo US
ICAO: KSBP
IATA: SBP
Category: Medium
Scheduled Services: Yes

Elevation: 212 ft
TransAlt. 18000 ft.

Airport Communications:
SANTA BARB APP/DEP:127.725
ATIS:120.6
CTAF:124
GND:121.6
TWR:124
UNICOM:122.95

KSBP Zoom In..

If you have problems with the map follow the link
https://www.worldairports.se/pages/airport.php?
ICAO=KSBP

Runways:

(A) RW 07 length 2500 ft width 100 ft
---- / hdg 74

(B) RW 11 length 6100 ft width 150 ft
ILS 109.70 / hdg 110

(C) RW 25 length 2500 ft width 100 ft
---- / hdg 254

(D) RW 29 length 6100 ft width 150 ft
---- / hdg 290

Location; KSBP
Day. 29 / Time. 11.56 Zulu
* Altimeter: 30.20
* Temperature: 11° c. 51.8°f.
* Wind from: 310° Speed 06 kn.
Dewpoint: 07° c.
Visibility: 10 Statute Miles.
Clouds: Few 3200 ft.

KSBP 291156Z AUTO 31006KT 10SM FEW032 11/07 A3020 RMK AO2 SLP227 T01060072 10133 20106 55005


Wind From 310°
Speed 06 kn.

 
 
jpsmedia worldairports.se 2020   terms of use